createdAt,value
2023-05-02T00:01:20.095Z,12.56
2023-05-02T00:03:47.358Z,12.56
2023-05-02T00:06:14.367Z,12.56
2023-05-02T00:08:41.252Z,12.54
2023-05-02T00:11:08.170Z,12.51
2023-05-02T00:13:34.983Z,12.51
2023-05-02T00:16:01.957Z,12.47
2023-05-02T00:18:28.804Z,12.45
2023-05-02T00:20:56.933Z,12.43
2023-05-02T00:23:24.020Z,12.39
2023-05-02T00:25:50.956Z,12.40
2023-05-02T00:28:18.224Z,12.38
2023-05-02T00:30:46.180Z,12.34
2023-05-02T00:33:14.830Z,12.33
2023-05-02T00:35:42.106Z,12.29
2023-05-02T00:38:09.103Z,12.28
2023-05-02T00:40:49.596Z,12.25
2023-05-02T00:43:16.758Z,12.23
2023-05-02T00:45:46.178Z,12.20
2023-05-02T00:48:13.894Z,12.21
2023-05-02T00:50:43.255Z,12.16
2023-05-02T00:53:10.930Z,12.12
2023-05-02T00:55:38.197Z,12.10
2023-05-02T00:58:15.019Z,12.08
2023-05-02T01:00:50.082Z,12.08
2023-05-02T01:03:51.386Z,12.06
2023-05-02T01:06:39.523Z,12.04
2023-05-02T01:09:23.627Z,12.01
2023-05-02T01:12:12.693Z,11.96
2023-05-02T01:14:45.954Z,11.98
2023-05-02T01:17:15.722Z,11.97
2023-05-02T01:19:49.298Z,11.95
2023-05-02T01:22:17.236Z,11.93
2023-05-02T01:25:09.681Z,11.90
2023-05-02T01:27:58.556Z,11.86
2023-05-02T01:30:28.299Z,11.85
2023-05-02T01:32:59.098Z,11.80
2023-05-02T01:35:27.811Z,11.76
2023-05-02T01:37:57.535Z,11.76
2023-05-02T01:40:26.438Z,11.74
2023-05-02T01:42:55.098Z,11.69
2023-05-02T01:45:23.160Z,11.70
2023-05-02T01:47:51.328Z,11.69
2023-05-02T01:50:23.298Z,11.68
2023-05-02T01:52:53.358Z,11.68
2023-05-02T01:55:20.867Z,11.66
2023-05-02T01:57:50.726Z,11.65
2023-05-02T02:00:19.797Z,11.62
2023-05-02T02:02:48.922Z,11.63
2023-05-02T02:05:17.256Z,11.61
2023-05-02T02:07:44.597Z,11.59
2023-05-02T02:10:11.762Z,11.57
2023-05-02T02:13:12.486Z,11.54
2023-05-02T02:15:41.752Z,11.53
2023-05-02T02:18:21.736Z,11.49
2023-05-02T02:20:50.461Z,11.47
2023-05-02T02:23:22.130Z,11.45
2023-05-02T02:25:52.392Z,11.43
2023-05-02T02:28:19.384Z,11.43
2023-05-02T02:30:46.333Z,11.40
2023-05-02T02:33:13.177Z,11.41
2023-05-02T02:35:52.757Z,11.39
2023-05-02T02:38:28.310Z,11.36
2023-05-02T02:41:12.690Z,11.36
2023-05-02T02:44:18.746Z,11.34
2023-05-02T02:47:09.797Z,11.27
2023-05-02T02:49:51.409Z,11.29
2023-05-02T02:52:33.884Z,11.25
2023-05-02T02:55:19.899Z,11.25
2023-05-02T02:58:12.833Z,11.23
2023-05-02T03:00:40.660Z,11.18
2023-05-02T03:03:08.677Z,11.19
2023-05-02T03:05:36.157Z,11.20
2023-05-02T03:08:02.965Z,11.12
2023-05-02T03:10:29.772Z,11.13
2023-05-02T03:12:56.656Z,11.00
2023-05-02T03:15:52.432Z,11.05
2023-05-02T03:18:19.649Z,11.03
2023-05-02T03:20:46.807Z,11.00
2023-05-02T03:23:13.610Z,10.99
2023-05-02T03:25:40.467Z,10.96
2023-05-02T03:28:07.390Z,10.98
2023-05-02T03:30:35.153Z,10.95
2023-05-02T03:33:04.711Z,10.93
2023-05-02T03:35:31.669Z,10.94
2023-05-02T03:37:58.504Z,10.93
2023-05-02T03:40:25.371Z,10.91
2023-05-02T03:42:52.169Z,10.89
2023-05-02T03:45:19.264Z,10.83
2023-05-02T03:47:46.110Z,10.83
2023-05-02T03:50:12.986Z,10.82
2023-05-02T03:52:39.790Z,10.86
2023-05-02T03:55:07.852Z,10.87
2023-05-02T03:57:34.700Z,10.80
2023-05-02T04:00:01.760Z,10.87
2023-05-02T04:02:30.555Z,10.85
2023-05-02T04:04:57.499Z,10.85
2023-05-02T04:07:25.762Z,10.83
2023-05-02T04:09:52.565Z,10.86
2023-05-02T04:12:19.810Z,10.84
2023-05-02T04:14:46.708Z,10.83
2023-05-02T04:17:15.872Z,10.85
2023-05-02T04:19:43.186Z,10.83
2023-05-02T04:22:09.987Z,10.84
2023-05-02T04:24:36.786Z,10.84
2023-05-02T04:27:03.776Z,10.86
2023-05-02T04:29:30.642Z,10.84
2023-05-02T04:31:57.436Z,10.84
2023-05-02T04:34:24.210Z,10.85
2023-05-02T04:36:50.976Z,10.86
2023-05-02T04:39:17.800Z,10.85
2023-05-02T04:41:44.924Z,10.87
2023-05-02T04:44:11.767Z,10.87
2023-05-02T04:46:38.570Z,10.88
2023-05-02T04:49:05.394Z,10.87
2023-05-02T04:51:32.694Z,10.85
2023-05-02T04:53:59.594Z,10.90
2023-05-02T04:56:26.814Z,10.92
2023-05-02T04:58:53.615Z,10.92
2023-05-02T05:01:20.485Z,10.92
2023-05-02T05:03:47.365Z,10.94
2023-05-02T05:06:14.310Z,10.95
2023-05-02T05:08:41.173Z,10.97
2023-05-02T05:11:07.974Z,10.98
2023-05-02T05:13:35.947Z,11.02
2023-05-02T05:16:02.858Z,11.03
2023-05-02T05:18:29.967Z,11.05
2023-05-02T05:20:56.753Z,11.08
2023-05-02T05:23:23.641Z,11.08
2023-05-02T05:25:50.428Z,11.11
2023-05-02T05:28:18.453Z,11.12
2023-05-02T05:30:45.336Z,11.16
2023-05-02T05:33:12.259Z,11.18
2023-05-02T05:35:39.115Z,11.22
2023-05-02T05:38:06.978Z,11.20
2023-05-02T05:40:33.813Z,11.27
2023-05-02T05:43:00.609Z,11.32
2023-05-02T05:45:27.456Z,11.35
2023-05-02T05:47:55.818Z,11.32
2023-05-02T05:50:22.775Z,11.39
2023-05-02T05:52:49.820Z,11.41
2023-05-02T05:55:16.795Z,11.44
2023-05-02T05:57:43.592Z,11.45
2023-05-02T06:00:11.673Z,11.40
2023-05-02T06:02:38.588Z,11.46
2023-05-02T06:05:06.101Z,11.50
2023-05-02T06:07:32.928Z,11.54
2023-05-02T06:10:00.002Z,11.56
2023-05-02T06:12:27.154Z,11.59
2023-05-02T06:14:53.969Z,11.62
2023-05-02T06:17:20.826Z,11.65
2023-05-02T06:19:47.764Z,11.65
2023-05-02T06:22:14.599Z,11.64
2023-05-02T06:24:41.452Z,11.68
2023-05-02T06:27:08.300Z,11.67
2023-05-02T06:29:35.160Z,11.68
2023-05-02T06:32:02.103Z,11.72
2023-05-02T06:34:29.087Z,11.60
2023-05-02T06:36:56.930Z,11.69
2023-05-02T06:39:23.748Z,11.72
2023-05-02T06:41:50.662Z,11.74
2023-05-02T06:44:17.637Z,11.78
2023-05-02T06:46:44.557Z,11.83
2023-05-02T06:49:11.506Z,11.86
2023-05-02T06:51:38.340Z,11.91
2023-05-02T06:54:06.905Z,11.93
2023-05-02T06:56:33.703Z,11.92
2023-05-02T06:59:00.659Z,11.88
2023-05-02T07:01:27.837Z,11.87
2023-05-02T07:03:54.749Z,11.94
2023-05-02T07:06:21.985Z,11.97
2023-05-02T07:08:48.894Z,12.02
2023-05-02T07:11:16.101Z,11.94
2023-05-02T07:13:43.089Z,11.99
2023-05-02T07:16:09.924Z,12.01
2023-05-02T07:18:36.760Z,12.04
2023-05-02T07:21:03.817Z,12.04
2023-05-02T07:23:30.826Z,12.09
2023-05-02T07:25:57.884Z,12.10
2023-05-02T07:28:24.693Z,12.12
2023-05-02T07:30:51.611Z,12.11
2023-05-02T07:33:18.538Z,12.14
2023-05-02T07:35:45.448Z,12.18
2023-05-02T07:38:12.536Z,12.17
2023-05-02T07:40:39.549Z,12.10
2023-05-02T07:43:06.367Z,12.18
2023-05-02T07:45:34.011Z,12.23
2023-05-02T07:48:00.966Z,12.25
2023-05-02T07:50:28.053Z,12.27
2023-05-02T07:52:57.913Z,12.26
2023-05-02T07:55:26.550Z,12.28
2023-05-02T07:57:53.813Z,12.26
2023-05-02T08:00:21.089Z,12.29
2023-05-02T08:02:48.042Z,12.30
2023-05-02T08:05:15.144Z,12.32
2023-05-02T08:07:43.003Z,12.34
2023-05-02T08:10:10.590Z,12.39
2023-05-02T08:12:42.158Z,12.39
2023-05-02T08:15:12.812Z,12.39
2023-05-02T08:17:39.724Z,12.44
2023-05-02T08:20:07.537Z,12.43
2023-05-02T08:22:34.379Z,12.43
2023-05-02T08:25:01.185Z,12.47
2023-05-02T08:27:28.087Z,12.48
2023-05-02T08:29:54.976Z,12.50
2023-05-02T08:32:22.359Z,12.51
2023-05-02T08:34:49.336Z,12.52
2023-05-02T08:37:16.234Z,12.56
2023-05-02T08:39:43.030Z,12.58
2023-05-02T08:42:09.963Z,12.60
2023-05-02T08:44:37.733Z,12.61
2023-05-02T08:47:06.871Z,12.64
2023-05-02T08:49:36.459Z,12.67
2023-05-02T08:52:04.635Z,12.65
2023-05-02T08:54:32.026Z,12.66
2023-05-02T08:56:59.710Z,12.65
2023-05-02T08:59:26.819Z,12.65
2023-05-02T09:02:01.079Z,12.72
2023-05-02T09:04:33.175Z,12.76
2023-05-02T09:07:00.047Z,12.82
2023-05-02T09:09:27.448Z,12.84
2023-05-02T09:11:54.343Z,12.86
2023-05-02T09:14:21.145Z,12.88
2023-05-02T09:16:48.142Z,12.94
2023-05-02T09:19:26.107Z,12.97
2023-05-02T09:22:00.217Z,13.00
2023-05-02T09:24:27.126Z,13.00
2023-05-02T09:27:04.900Z,13.03
2023-05-02T09:29:38.009Z,13.02
2023-05-02T09:32:07.946Z,12.99
2023-05-02T09:34:37.174Z,13.03
2023-05-02T09:37:05.435Z,13.09
2023-05-02T09:39:32.303Z,13.13
2023-05-02T09:41:59.655Z,13.29
2023-05-02T09:44:36.875Z,13.28
2023-05-02T09:47:03.885Z,13.26
2023-05-02T09:49:46.818Z,13.27
2023-05-02T09:52:16.644Z,13.29
2023-05-02T09:54:46.363Z,13.39
2023-05-02T09:57:13.397Z,13.41
2023-05-02T09:59:41.117Z,13.40
2023-05-02T10:02:11.101Z,13.43
2023-05-02T10:04:39.286Z,13.58
2023-05-02T10:07:10.150Z,13.64
2023-05-02T10:09:43.554Z,13.66
2023-05-02T10:12:14.951Z,13.67
2023-05-02T10:14:50.845Z,13.62
2023-05-02T10:17:31.590Z,13.66
2023-05-02T10:20:05.177Z,13.72
2023-05-02T10:22:34.161Z,13.74
2023-05-02T10:25:03.177Z,13.80
2023-05-02T10:27:32.022Z,13.87
2023-05-02T10:30:00.518Z,14.24
2023-05-02T10:32:34.659Z,14.41
2023-05-02T10:35:07.049Z,14.26
2023-05-02T10:37:36.672Z,14.29
2023-05-02T10:40:04.152Z,14.23
2023-05-02T10:42:31.446Z,14.25
2023-05-02T10:44:58.991Z,14.26
2023-05-02T10:47:27.340Z,14.25
2023-05-02T10:50:00.582Z,14.30
2023-05-02T10:52:38.855Z,14.33
2023-05-02T10:55:22.472Z,14.63
2023-05-02T10:57:58.724Z,14.62
2023-05-02T11:00:26.732Z,14.73
2023-05-02T11:02:53.988Z,14.78
2023-05-02T11:05:24.208Z,14.72
2023-05-02T11:08:19.379Z,14.72
2023-05-02T11:10:47.423Z,14.86
2023-05-02T11:13:14.235Z,14.83
2023-05-02T11:15:40.901Z,14.77
2023-05-02T11:18:11.786Z,14.73
2023-05-02T11:20:43.993Z,14.75
2023-05-02T11:23:16.772Z,14.71
2023-05-02T11:25:46.834Z,14.75
2023-05-02T11:28:39.124Z,14.86
2023-05-02T11:31:08.894Z,14.89
2023-05-02T11:33:35.738Z,15.02
2023-05-02T11:36:02.976Z,15.17
2023-05-02T11:38:39.365Z,15.31
2023-05-02T11:41:06.271Z,15.57
2023-05-02T11:43:33.139Z,16.28
2023-05-02T11:46:01.946Z,16.82
2023-05-02T11:48:30.589Z,16.79
2023-05-02T11:51:04.785Z,17.04
2023-05-02T11:53:31.964Z,17.08
2023-05-02T11:56:04.708Z,17.00
2023-05-02T11:58:33.476Z,17.24
2023-05-02T12:01:15.668Z,16.91
2023-05-02T12:03:42.755Z,16.55
2023-05-02T12:06:11.450Z,16.81
2023-05-02T12:08:40.915Z,17.00
2023-05-02T12:11:07.914Z,17.09
2023-05-02T12:13:35.153Z,16.84
2023-05-02T12:16:02.861Z,16.74
2023-05-02T12:18:29.981Z,16.62
2023-05-02T12:20:56.991Z,16.41
2023-05-02T12:23:26.386Z,16.40
2023-05-02T12:25:53.328Z,16.43
2023-05-02T12:28:20.739Z,16.50
2023-05-02T12:30:49.891Z,16.63
2023-05-02T12:33:19.002Z,16.60
2023-05-02T12:35:47.478Z,16.37
2023-05-02T12:38:18.717Z,16.27
2023-05-02T12:40:57.442Z,16.23
2023-05-02T12:43:24.259Z,16.36
2023-05-02T12:46:09.684Z,16.26
2023-05-02T12:48:36.580Z,16.28
2023-05-02T12:51:03.446Z,16.35
2023-05-02T12:53:45.817Z,16.47
2023-05-02T12:56:13.347Z,16.52
2023-05-02T12:58:46.687Z,16.55
2023-05-02T13:01:15.105Z,16.67
2023-05-02T13:03:43.771Z,16.77
2023-05-02T13:06:11.413Z,16.85
2023-05-02T13:08:39.218Z,16.83
2023-05-02T13:11:06.081Z,16.74
2023-05-02T13:13:33.459Z,16.91
2023-05-02T13:16:00.508Z,16.99
2023-05-02T13:18:28.234Z,17.00
2023-05-02T13:20:55.321Z,16.84
2023-05-02T13:23:22.330Z,16.89
2023-05-02T13:25:49.217Z,16.84
2023-05-02T13:28:16.479Z,16.89
2023-05-02T13:30:43.356Z,16.83
2023-05-02T13:33:10.311Z,16.88
2023-05-02T13:35:37.108Z,16.92
2023-05-02T13:38:04.266Z,17.01
2023-05-02T13:40:31.170Z,17.00
2023-05-02T13:42:58.044Z,16.93
2023-05-02T13:45:25.003Z,17.02
2023-05-02T13:47:51.867Z,17.11
2023-05-02T13:50:18.788Z,17.16
2023-05-02T13:52:48.412Z,17.08
2023-05-02T13:55:16.061Z,17.17
2023-05-02T13:57:42.938Z,17.32
2023-05-02T14:00:10.682Z,17.29
2023-05-02T14:02:38.805Z,17.26
2023-05-02T14:05:06.326Z,17.20
2023-05-02T14:07:33.152Z,17.13
2023-05-02T14:10:00.221Z,17.05
2023-05-02T14:12:27.461Z,17.13
2023-05-02T14:14:54.276Z,17.09
2023-05-02T14:17:21.608Z,17.10
2023-05-02T14:19:48.453Z,17.14
2023-05-02T14:22:15.842Z,17.23
2023-05-02T14:24:42.731Z,17.23
2023-05-02T14:27:17.854Z,17.26
2023-05-02T14:29:46.303Z,17.24
2023-05-02T14:32:13.604Z,17.42
2023-05-02T14:34:41.685Z,17.53
2023-05-02T14:37:11.581Z,17.56
2023-05-02T14:39:40.161Z,17.50
2023-05-02T14:42:10.898Z,17.48
2023-05-02T14:44:38.189Z,17.72
2023-05-02T14:47:36.347Z,17.65
2023-05-02T14:50:07.108Z,17.67
2023-05-02T14:52:34.141Z,17.74
2023-05-02T14:55:02.133Z,17.72
2023-05-02T14:57:29.222Z,17.58
2023-05-02T14:59:57.093Z,17.50
2023-05-02T15:02:24.120Z,17.58
2023-05-02T15:04:51.166Z,17.63
2023-05-02T15:07:18.489Z,17.68
2023-05-02T15:09:45.669Z,17.77
2023-05-02T15:12:12.664Z,17.80
2023-05-02T15:14:39.616Z,17.72
2023-05-02T15:17:06.548Z,17.63
2023-05-02T15:19:33.477Z,17.66
2023-05-02T15:22:00.336Z,17.62
2023-05-02T15:24:27.634Z,17.66
2023-05-02T15:26:54.897Z,17.65
2023-05-02T15:29:21.719Z,17.67
2023-05-02T15:31:48.662Z,17.69
2023-05-02T15:34:15.620Z,17.85
2023-05-02T15:36:43.199Z,17.73
2023-05-02T15:39:10.386Z,17.60
2023-05-02T15:41:37.358Z,17.58
2023-05-02T15:44:04.469Z,17.66
2023-05-02T15:46:31.400Z,17.63
2023-05-02T15:48:58.314Z,17.57
2023-05-02T15:51:26.856Z,17.68
2023-05-02T15:53:53.998Z,17.61
2023-05-02T15:56:21.357Z,17.54
2023-05-02T15:58:48.826Z,17.41
2023-05-02T16:01:17.173Z,17.38
2023-05-02T16:03:45.553Z,17.34
2023-05-02T16:06:12.718Z,17.31
2023-05-02T16:08:39.664Z,17.25
2023-05-02T16:11:06.541Z,17.30
2023-05-02T16:13:33.443Z,17.39
2023-05-02T16:16:00.315Z,17.46
2023-05-02T16:18:29.805Z,17.56
2023-05-02T16:20:57.445Z,17.51
2023-05-02T16:23:25.644Z,17.65
2023-05-02T16:26:00.565Z,17.62
2023-05-02T16:28:27.956Z,17.66
2023-05-02T16:30:55.607Z,17.57
2023-05-02T16:33:23.106Z,17.50
2023-05-02T16:35:49.953Z,17.42
2023-05-02T16:38:17.011Z,17.45
2023-05-02T16:40:43.904Z,17.48
2023-05-02T16:43:10.766Z,17.47
2023-05-02T16:45:38.711Z,17.47
2023-05-02T16:48:05.751Z,17.48
2023-05-02T16:50:32.640Z,17.61
2023-05-02T16:52:59.408Z,17.72
2023-05-02T16:55:26.446Z,17.68
2023-05-02T16:57:53.275Z,17.70
2023-05-02T17:00:20.798Z,17.65
2023-05-02T17:02:47.754Z,17.65
2023-05-02T17:05:14.641Z,17.53
2023-05-02T17:07:41.572Z,17.62
2023-05-02T17:10:09.316Z,17.54
2023-05-02T17:12:36.146Z,17.54
2023-05-02T17:15:04.297Z,17.49
2023-05-02T17:17:31.364Z,17.55
2023-05-02T17:19:58.469Z,17.54
2023-05-02T17:22:26.120Z,17.45
2023-05-02T17:24:54.840Z,17.38
2023-05-02T17:27:21.721Z,17.34
2023-05-02T17:29:48.600Z,17.22
2023-05-02T17:32:16.128Z,17.26
2023-05-02T17:34:43.496Z,17.21
2023-05-02T17:37:10.701Z,17.24
2023-05-02T17:39:37.605Z,17.15
2023-05-02T17:42:04.565Z,17.14
2023-05-02T17:44:31.554Z,17.05
2023-05-02T17:46:58.912Z,17.05
2023-05-02T17:49:25.798Z,17.05
2023-05-02T17:51:52.688Z,17.09
2023-05-02T17:54:19.704Z,17.04
2023-05-02T17:56:47.035Z,17.02
2023-05-02T17:59:14.097Z,17.00
2023-05-02T18:01:40.912Z,16.99
2023-05-02T18:04:07.816Z,16.92
2023-05-02T18:06:35.659Z,16.90
2023-05-02T18:09:02.701Z,16.81
2023-05-02T18:11:29.642Z,16.74
2023-05-02T18:13:56.969Z,16.72
2023-05-02T18:16:23.935Z,16.66
2023-05-02T18:18:50.836Z,16.61
2023-05-02T18:21:25.658Z,16.59
2023-05-02T18:23:52.457Z,16.50
2023-05-02T18:26:19.299Z,16.47
2023-05-02T18:28:52.946Z,16.44
2023-05-02T18:31:23.818Z,16.35
2023-05-02T18:33:53.271Z,16.31
2023-05-02T18:36:28.794Z,16.31
2023-05-02T18:38:56.244Z,16.24
2023-05-02T18:41:23.229Z,16.23
2023-05-02T18:43:50.426Z,16.02
2023-05-02T18:46:17.424Z,16.13
2023-05-02T18:48:44.350Z,16.08
2023-05-02T18:51:11.326Z,16.00
2023-05-02T18:53:38.167Z,16.00
2023-05-02T18:56:13.523Z,15.95
2023-05-02T18:58:41.597Z,15.83
2023-05-02T19:01:15.880Z,15.84
2023-05-02T19:03:44.023Z,15.82
2023-05-02T19:06:11.313Z,15.78
2023-05-02T19:08:40.101Z,15.76
2023-05-02T19:11:07.436Z,15.77
2023-05-02T19:13:34.339Z,15.72
2023-05-02T19:16:01.332Z,15.64
2023-05-02T19:18:28.239Z,15.70
2023-05-02T19:20:55.064Z,15.65
2023-05-02T19:23:21.972Z,15.57
2023-05-02T19:25:49.080Z,15.51
2023-05-02T19:28:16.870Z,15.50
2023-05-02T19:30:44.405Z,15.49
2023-05-02T19:33:11.596Z,15.46
2023-05-02T19:35:38.801Z,15.48
2023-05-02T19:38:05.655Z,15.43
2023-05-02T19:40:32.508Z,15.40
2023-05-02T19:42:59.423Z,15.39
2023-05-02T19:45:26.472Z,15.32
2023-05-02T19:47:53.620Z,15.30
2023-05-02T19:50:20.480Z,15.27
2023-05-02T19:52:47.298Z,15.26
2023-05-02T19:55:16.019Z,15.35
2023-05-02T19:57:44.567Z,15.22
2023-05-02T20:00:13.003Z,15.15
2023-05-02T20:02:39.992Z,15.35
2023-05-02T20:05:07.713Z,15.13
2023-05-02T20:07:34.532Z,15.29
2023-05-02T20:10:01.601Z,15.31
2023-05-02T20:12:28.621Z,15.30
2023-05-02T20:14:55.551Z,15.15
2023-05-02T20:17:22.445Z,15.21
2023-05-02T20:19:49.300Z,15.22
2023-05-02T20:22:16.136Z,15.19
2023-05-02T20:24:42.914Z,15.18
2023-05-02T20:27:09.960Z,15.16
2023-05-02T20:29:36.834Z,15.13
2023-05-02T20:32:03.950Z,15.13
2023-05-02T20:34:30.813Z,15.14
2023-05-02T20:36:58.448Z,15.10
2023-05-02T20:39:25.347Z,15.12
2023-05-02T20:41:52.742Z,15.09
2023-05-02T20:44:22.486Z,15.04
2023-05-02T20:46:51.368Z,15.08
2023-05-02T20:49:18.444Z,15.06
2023-05-02T20:51:45.362Z,14.97
2023-05-02T20:54:12.327Z,14.77
2023-05-02T20:56:39.861Z,14.93
2023-05-02T20:59:06.807Z,14.95
2023-05-02T21:01:33.675Z,14.91
2023-05-02T21:04:00.868Z,14.88
2023-05-02T21:06:27.865Z,14.91
2023-05-02T21:08:56.527Z,14.92
2023-05-02T21:11:23.489Z,14.78
2023-05-02T21:13:50.506Z,14.86
2023-05-02T21:16:19.098Z,14.81
2023-05-02T21:18:47.112Z,14.84
2023-05-02T21:21:14.559Z,14.83
2023-05-02T21:23:41.363Z,14.74
2023-05-02T21:26:08.347Z,14.78
2023-05-02T21:28:35.253Z,14.82
2023-05-02T21:31:02.279Z,14.83
2023-05-02T21:33:29.189Z,14.59
2023-05-02T21:35:57.576Z,14.83
2023-05-02T21:38:25.707Z,14.77
2023-05-02T21:40:53.022Z,14.73
2023-05-02T21:43:20.133Z,14.72
2023-05-02T21:45:50.422Z,14.69
2023-05-02T21:48:17.527Z,14.66
2023-05-02T21:50:45.249Z,14.73
2023-05-02T21:53:13.259Z,14.70
2023-05-02T21:55:40.942Z,14.62
2023-05-02T21:58:10.149Z,14.65
2023-05-02T22:00:38.747Z,14.62
2023-05-02T22:03:11.665Z,14.69
2023-05-02T22:05:42.570Z,14.69
2023-05-02T22:08:13.645Z,14.69
2023-05-02T22:10:42.707Z,14.67
2023-05-02T22:13:14.422Z,14.63
2023-05-02T22:15:46.239Z,14.62
2023-05-02T22:18:14.473Z,14.61
2023-05-02T22:20:42.254Z,14.59
2023-05-02T22:23:10.257Z,14.59
2023-05-02T22:25:41.422Z,14.56
2023-05-02T22:28:11.440Z,14.55
2023-05-02T22:30:39.501Z,14.53
2023-05-02T22:33:07.393Z,14.48
2023-05-02T22:35:34.385Z,14.47
2023-05-02T22:38:03.998Z,14.38
2023-05-02T22:40:31.608Z,14.40
2023-05-02T22:43:01.008Z,14.42
2023-05-02T22:45:27.910Z,14.39
2023-05-02T22:47:55.382Z,14.35
2023-05-02T22:50:22.290Z,14.32
2023-05-02T22:52:49.235Z,14.31
2023-05-02T22:55:16.452Z,14.28
2023-05-02T22:57:43.386Z,14.26
2023-05-02T23:00:11.279Z,14.20
2023-05-02T23:02:38.597Z,14.15
2023-05-02T23:05:06.905Z,14.13
2023-05-02T23:07:34.003Z,14.11
2023-05-02T23:10:01.330Z,14.09
2023-05-02T23:12:28.786Z,14.03
2023-05-02T23:14:55.741Z,14.06
2023-05-02T23:17:23.203Z,13.98
2023-05-02T23:19:50.467Z,14.01
2023-05-02T23:22:17.418Z,13.97
2023-05-02T23:24:47.526Z,13.92
2023-05-02T23:27:14.475Z,13.84
2023-05-02T23:29:41.311Z,13.85
2023-05-02T23:32:08.481Z,13.76
2023-05-02T23:34:38.050Z,13.77
2023-05-02T23:37:06.869Z,13.67
2023-05-02T23:39:33.823Z,13.70
2023-05-02T23:42:03.278Z,13.64
2023-05-02T23:44:30.813Z,13.63
2023-05-02T23:46:59.576Z,13.59
2023-05-02T23:49:26.999Z,13.57
2023-05-02T23:51:53.951Z,13.55
2023-05-02T23:54:20.935Z,13.51
2023-05-02T23:56:47.832Z,13.43
2023-05-02T23:59:15.143Z,13.47
